Time;durP1;ratioP1;P1;durP2;ratioP2;P2;SDS_P1;SDS_P2;PMS_P1;PMS_P2;Temp;Humidity;BMP_temperature;BMP_pressure;BME280_temperature;BME280_humidity;BME280_pressure;Samples;Min_cycle;Max_cycle;Signal;HPM_P1;HPM_P2
2022/06/04 00:00:10;;;;;;;11.85;5.50;;;13.40;99.90;;;;;;5043043;28;20060;-64
2022/06/04 00:02:40;;;;;;;7.97;4.20;;;13.30;99.90;;;;;;5045315;28;20021;-64
2022/06/04 00:05:08;;;;;;;11.43;5.07;;;13.30;99.90;;;;;;5044723;28;20410;-62
2022/06/04 00:07:34;;;;;;;13.88;6.57;;;13.30;99.90;;;;;;5043628;28;20036;-64
2022/06/04 00:15:29;;;;;;;11.43;5.68;;;13.20;99.90;;;;;;5043567;28;20547;-62
2022/06/04 00:17:54;;;;;;;11.23;6.50;;;13.20;99.90;;;;;;5042526;28;20036;-62
2022/06/04 00:20:20;;;;;;;11.40;6.05;;;13.20;99.90;;;;;;5043633;28;20013;-61
2022/06/04 00:22:46;;;;;;;13.50;6.60;;;13.10;99.90;;;;;;5042789;28;20025;-63
2022/06/04 00:25:14;;;;;;;14.70;7.40;;;13.10;99.90;;;;;;5033865;28;20029;-62
2022/06/04 00:27:40;;;;;;;11.45;5.55;;;13.10;99.90;;;;;;5027744;28;20036;-62
2022/06/04 00:30:07;;;;;;;12.40;6.45;;;13.10;99.90;;;;;;5033902;28;20050;-62
2022/06/04 00:32:36;;;;;;;12.20;6.45;;;13.10;99.90;;;;;;5033900;28;20013;-61
2022/06/04 00:35:03;;;;;;;16.35;7.18;;;13.10;99.90;;;;;;5033620;28;20029;-63
2022/06/04 00:37:33;;;;;;;14.85;6.78;;;13.00;99.90;;;;;;5034364;28;20021;-63
2022/06/04 00:39:59;;;;;;;18.73;8.00;;;13.00;99.90;;;;;;5033987;28;20028;-61
2022/06/04 00:42:25;;;;;;;14.60;7.50;;;13.00;99.90;;;;;;5032526;28;20112;-61
2022/06/04 00:45:22;;;;;;;17.58;7.25;;;12.90;99.90;;;;;;5033712;28;20040;-61
2022/06/04 00:47:48;;;;;;;14.40;7.03;;;12.90;99.90;;;;;;5032560;28;20022;-61
2022/06/04 00:50:18;;;;;;;16.63;8.50;;;12.90;99.90;;;;;;5033795;28;20557;-61
2022/06/04 00:52:47;;;;;;;23.25;10.52;;;12.80;99.90;;;;;;5033361;28;20032;-61
2022/06/04 00:55:13;;;;;;;14.43;6.97;;;12.80;99.90;;;;;;5033580;28;20500;-61
2022/06/04 00:57:48;;;;;;;17.85;7.70;;;12.70;99.90;;;;;;5028943;28;20021;-61
2022/06/04 01:00:18;;;;;;;19.45;9.38;;;12.70;99.90;;;;;;5033550;28;20508;-61
2022/06/04 01:03:02;;;;;;;19.77;9.13;;;12.70;99.90;;;;;;5028908;28;20025;-64
2022/06/04 01:05:27;;;;;;;19.77;8.48;;;12.70;99.90;;;;;;5017645;28;20021;-62
2022/06/04 01:08:10;;;;;;;19.08;9.18;;;12.60;99.90;;;;;;5014691;28;20025;-61
2022/06/04 01:10:51;;;;;;;17.92;9.00;;;12.70;99.90;;;;;;5033134;28;20029;-64
2022/06/04 01:13:42;;;;;;;19.15;9.30;;;12.70;99.90;;;;;;5033241;28;20032;-62
2022/06/04 01:16:30;;;;;;;20.45;9.40;;;12.70;99.90;;;;;;5033269;28;20024;-61
2022/06/04 01:19:23;;;;;;;16.83;8.60;;;12.70;99.90;;;;;;5032785;28;20025;-62
2022/06/04 01:22:22;;;;;;;22.02;10.10;;;12.70;99.90;;;;;;5033066;28;20458;-63
2022/06/04 01:25:12;;;;;;;17.63;8.77;;;12.60;99.90;;;;;;5032978;28;20029;-61
2022/06/04 01:27:48;;;;;;;17.10;7.38;;;12.60;99.90;;;;;;5032793;28;20032;-60
2022/06/04 01:30:34;;;;;;;16.05;8.38;;;12.60;99.90;;;;;;5032217;28;20473;-61
2022/06/04 01:33:20;;;;;;;17.50;7.90;;;12.60;99.90;;;;;;5032696;28;20028;-60
2022/06/04 01:35:59;;;;;;;16.92;7.90;;;12.60;99.90;;;;;;5032691;28;20021;-61
2022/06/04 01:38:44;;;;;;;21.85;8.85;;;12.60;99.90;;;;;;5020821;28;20029;-62
2022/06/04 01:41:16;;;;;;;16.45;7.95;;;12.60;99.90;;;;;;5023205;28;20075;-61
2022/06/04 01:43:54;;;;;;;22.30;9.40;;;12.60;99.90;;;;;;5032531;28;20025;-62
2022/06/04 01:46:25;;;;;;;16.88;8.15;;;12.60;99.90;;;;;;5032528;28;20033;-64
2022/06/04 01:48:55;;;;;;;14.53;7.83;;;12.60;99.90;;;;;;5032123;28;20029;-62
2022/06/04 01:51:25;;;;;;;16.58;7.25;;;12.70;99.90;;;;;;5032159;28;20033;-62
2022/06/04 01:53:55;;;;;;;15.70;6.63;;;12.70;99.90;;;;;;5032573;28;20037;-62
2022/06/04 01:56:27;;;;;;;15.70;6.93;;;12.70;99.90;;;;;;5032741;28;20061;-60
2022/06/04 01:59:02;;;;;;;;;;;12.70;99.90;;;;;;5032876;28;20025;-60
2022/06/04 02:01:32;;;;;;;14.00;6.30;;;12.80;99.90;;;;;;5031684;28;19901;-65
2022/06/04 02:04:04;;;;;;;16.25;6.95;;;12.80;99.90;;;;;;5030759;28;20028;-62
2022/06/04 02:06:38;;;;;;;14.40;6.32;;;12.80;99.90;;;;;;5032195;28;20511;-60
2022/06/04 02:09:14;;;;;;;16.23;6.75;;;12.80;99.90;;;;;;5031956;28;20032;-64
2022/06/04 02:11:47;;;;;;;16.10;7.13;;;12.90;99.90;;;;;;5032231;28;20033;-61
2022/06/04 02:14:12;;;;;;;20.08;7.45;;;12.90;99.90;;;;;;5031730;28;20024;-62
2022/06/04 02:16:53;;;;;;;15.10;7.80;;;12.90;99.90;;;;;;5030999;28;20022;-61
2022/06/04 02:19:18;;;;;;;16.20;6.70;;;12.90;99.90;;;;;;5031780;28;20438;-61
2022/06/04 02:21:44;;;;;;;13.93;7.00;;;12.90;99.90;;;;;;5031817;28;20021;-64
2022/06/04 02:24:10;;;;;;;13.88;6.68;;;12.90;99.90;;;;;;5032105;28;20030;-63
2022/06/04 02:26:38;;;;;;;18.67;6.68;;;13.00;99.90;;;;;;5031961;28;20105;-65
2022/06/04 02:29:04;;;;;;;20.83;8.40;;;12.90;99.90;;;;;;5032006;28;20022;-63
2022/06/04 02:31:34;;;;;;;17.63;6.82;;;13.00;99.90;;;;;;5031924;28;20037;-61
2022/06/04 02:34:28;;;;;;;17.60;7.43;;;13.00;99.90;;;;;;5031150;28;20025;-61
2022/06/04 02:37:16;;;;;;;15.60;6.93;;;12.90;99.90;;;;;;5027667;28;20033;-63
2022/06/04 02:39:51;;;;;;;15.65;6.50;;;12.90;99.90;;;;;;5031920;28;20381;-61
2022/06/04 02:42:43;;;;;;;16.33;7.30;;;12.90;99.90;;;;;;5028440;28;20051;-62
2022/06/04 02:45:22;;;;;;;14.02;6.47;;;12.90;99.90;;;;;;5030469;28;20029;-61
2022/06/04 02:48:28;;;;;;;18.00;7.35;;;12.90;99.90;;;;;;5032032;28;20075;-61
2022/06/04 02:50:58;;;;;;;15.32;7.55;;;12.90;99.90;;;;;;5020636;28;20049;-62
2022/06/04 02:53:27;;;;;;;19.95;8.35;;;12.90;99.90;;;;;;5030290;28;20026;-61
2022/06/04 02:56:13;;;;;;;16.13;7.53;;;12.90;99.90;;;;;;5031613;28;20064;-63
2022/06/04 02:58:42;;;;;;;18.33;7.70;;;12.90;99.90;;;;;;5031477;28;20068;-61
2022/06/04 03:01:10;;;;;;;20.40;8.00;;;12.90;99.90;;;;;;5031598;28;20426;-62
2022/06/04 03:03:37;;;;;;;16.20;7.47;;;12.90;99.90;;;;;;5031793;28;20060;-64
2022/06/04 03:06:06;;;;;;;18.73;8.63;;;12.90;99.90;;;;;;5031292;28;20401;-62
2022/06/04 03:08:35;;;;;;;17.35;8.93;;;12.90;99.90;;;;;;5031509;28;20035;-63
2022/06/04 03:11:01;;;;;;;20.17;8.02;;;12.90;99.90;;;;;;5031138;28;20369;-63
2022/06/04 03:13:27;;;;;;;17.30;7.00;;;12.90;99.90;;;;;;5033819;28;20104;-64
2022/06/04 03:15:53;;;;;;;20.15;8.73;;;12.90;99.90;;;;;;5035479;28;20025;-62
2022/06/04 03:18:19;;;;;;;15.68;7.05;;;12.90;99.90;;;;;;5035112;28;20029;-61
2022/06/04 03:20:45;;;;;;;16.00;8.25;;;13.00;99.90;;;;;;5034892;28;20030;-61
2022/06/04 03:23:11;;;;;;;17.40;7.70;;;13.00;99.90;;;;;;5035206;28;20025;-61
2022/06/04 03:25:41;;;;;;;17.27;7.50;;;13.00;99.90;;;;;;5035049;28;20037;-61
2022/06/04 03:28:07;;;;;;;12.88;6.35;;;13.00;99.90;;;;;;5034810;28;20026;-62
2022/06/04 03:30:35;;;;;;;17.02;7.35;;;12.90;99.90;;;;;;5027805;28;20049;-61
2022/06/04 03:33:01;;;;;;;16.92;7.75;;;12.90;99.90;;;;;;5014903;28;20390;-63
2022/06/04 03:35:27;;;;;;;16.05;7.13;;;12.90;99.90;;;;;;5015181;28;20104;-64
2022/06/04 03:37:52;;;;;;;14.57;6.90;;;12.90;99.90;;;;;;5015283;28;20029;-66
2022/06/04 03:40:18;;;;;;;17.50;7.10;;;12.90;99.90;;;;;;5013925;28;20034;-61
2022/06/04 03:42:44;;;;;;;19.70;7.10;;;12.80;99.90;;;;;;5015579;28;20053;-61
2022/06/04 03:45:11;;;;;;;15.73;6.80;;;12.80;99.90;;;;;;5013617;28;20049;-62
2022/06/04 03:47:37;;;;;;;14.13;6.35;;;12.80;99.90;;;;;;5014721;28;20488;-63
2022/06/04 03:50:06;;;;;;;15.30;6.65;;;12.70;99.90;;;;;;5014630;28;20042;-61
2022/06/04 03:52:32;;;;;;;15.00;6.53;;;12.70;99.90;;;;;;5014865;28;20014;-62
2022/06/04 03:54:57;;;;;;;18.92;7.50;;;12.70;99.90;;;;;;5014960;28;20367;-61
2022/06/04 03:57:42;;;;;;;19.52;7.60;;;12.70;99.90;;;;;;5015019;28;20344;-65
2022/06/04 04:00:13;;;;;;;24.73;7.82;;;12.60;99.90;;;;;;5014563;28;20092;-64
2022/06/04 04:02:41;;;;;;;16.63;6.63;;;12.60;99.90;;;;;;5014716;28;20465;-61
2022/06/04 04:05:09;;;;;;;16.02;6.82;;;12.60;99.90;;;;;;5014388;28;20548;-61
2022/06/04 04:07:35;;;;;;;17.88;7.00;;;12.60;99.90;;;;;;5014384;28;20036;-61
2022/06/04 04:10:00;;;;;;;15.55;6.85;;;12.60;99.90;;;;;;5014740;28;20467;-61
2022/06/04 04:12:27;;;;;;;18.73;6.80;;;12.60;99.90;;;;;;5014336;28;20030;-62
2022/06/04 04:14:53;;;;;;;16.38;6.13;;;12.60;99.90;;;;;;5014137;28;20068;-62
2022/06/04 04:17:19;;;;;;;15.18;6.13;;;12.70;99.90;;;;;;5014864;28;20057;-65
2022/06/04 04:19:44;;;;;;;15.77;6.72;;;12.70;99.90;;;;;;5014465;28;20049;-62
2022/06/04 04:22:10;;;;;;;15.55;5.93;;;12.70;99.90;;;;;;5014406;28;20064;-64
2022/06/04 04:24:35;;;;;;;19.27;7.00;;;12.70;99.90;;;;;;5013944;28;20026;-63
2022/06/04 04:27:01;;;;;;;15.35;6.18;;;12.80;99.90;;;;;;5014279;28;20101;-64
2022/06/04 04:29:26;;;;;;;13.90;5.43;;;12.70;99.90;;;;;;5013910;28;20105;-62
2022/06/04 04:31:52;;;;;;;17.77;6.70;;;12.80;99.90;;;;;;5022604;28;20127;-62
2022/06/04 04:34:17;;;;;;;15.75;6.13;;;12.80;99.90;;;;;;5033718;28;20374;-63
2022/06/04 04:36:45;;;;;;;15.15;6.07;;;12.80;99.90;;;;;;5034184;28;20100;-61
2022/06/04 04:39:11;;;;;;;14.98;6.07;;;12.90;99.90;;;;;;5034238;28;20031;-62
2022/06/04 04:41:36;;;;;;;17.65;6.80;;;12.90;99.90;;;;;;5034338;28;20056;-62
2022/06/04 04:44:02;;;;;;;16.27;5.88;;;13.00;99.90;;;;;;5034272;28;20057;-61
2022/06/04 04:46:28;;;;;;;15.73;5.90;;;13.00;99.90;;;;;;5031860;28;20032;-61
2022/06/04 04:48:54;;;;;;;12.60;5.40;;;13.10;99.90;;;;;;5014543;28;20178;-62
2022/06/04 04:51:23;;;;;;;17.13;7.28;;;13.10;99.90;;;;;;5013956;28;20426;-62
2022/06/04 04:53:49;;;;;;;12.90;5.47;;;13.20;99.90;;;;;;5013989;28;20022;-62
2022/06/04 04:56:18;;;;;;;15.30;5.32;;;13.30;99.90;;;;;;5013886;28;20022;-62
2022/06/04 04:58:44;;;;;;;11.60;4.90;;;13.30;99.90;;;;;;5013819;28;20025;-61
2022/06/04 05:01:18;;;;;;;16.33;6.15;;;13.40;99.90;;;;;;5014216;28;20034;-64
2022/06/04 05:03:44;;;;;;;13.60;6.10;;;13.40;99.90;;;;;;5025314;28;20500;-64
2022/06/04 05:06:11;;;;;;;11.48;5.05;;;13.50;99.90;;;;;;5033923;28;20018;-62
2022/06/04 05:08:37;;;;;;;10.20;5.20;;;13.60;99.90;;;;;;5033696;28;20088;-65
2022/06/04 05:11:12;;;;;;;10.43;4.88;;;13.80;99.90;;;;;;5033837;28;20049;-61
2022/06/04 05:13:38;;;;;;;10.18;4.68;;;13.90;99.90;;;;;;5033649;28;20057;-62
2022/06/04 05:16:04;;;;;;;15.07;5.32;;;14.00;99.90;;;;;;5033789;28;20057;-62
2022/06/04 05:18:30;;;;;;;20.08;7.68;;;14.10;99.90;;;;;;5028485;28;20052;-62
2022/06/04 05:21:05;;;;;;;9.88;4.45;;;14.20;99.90;;;;;;5014034;28;20450;-62
2022/06/04 05:23:31;;;;;;;13.57;5.78;;;14.30;99.90;;;;;;5013766;28;20033;-62
2022/06/04 05:25:57;;;;;;;16.60;6.30;;;14.30;99.90;;;;;;5013689;28;20022;-62
2022/06/04 05:28:23;;;;;;;14.88;5.15;;;14.40;99.90;;;;;;5013930;28;20030;-60
2022/06/04 05:30:49;;;;;;;13.55;5.40;;;14.40;99.90;;;;;;5013778;28;20162;-60
2022/06/04 05:33:14;;;;;;;13.75;5.20;;;14.50;99.90;;;;;;5013647;28;20470;-61
2022/06/04 05:35:40;;;;;;;14.10;5.15;;;14.60;99.90;;;;;;5027703;28;20029;-61
2022/06/04 05:38:05;;;;;;;9.40;4.68;;;14.70;99.90;;;;;;5032855;28;20056;-62
2022/06/04 05:40:31;;;;;;;11.38;4.07;;;14.80;99.90;;;;;;5033033;28;20021;-61
2022/06/04 05:42:57;;;;;;;14.57;4.50;;;15.20;99.90;;;;;;5031833;28;20373;-61
2022/06/04 05:45:22;;;;;;;13.68;4.65;;;15.40;99.90;;;;;;5032828;28;20036;-61
2022/06/04 05:47:49;;;;;;;10.93;4.65;;;15.50;99.90;;;;;;5032736;28;20025;-64
2022/06/04 05:50:14;;;;;;;11.23;4.38;;;15.80;99.90;;;;;;5029988;28;20108;-64
2022/06/04 05:52:40;;;;;;;10.57;4.00;;;16.00;99.90;;;;;;5033280;28;20164;-61
2022/06/04 05:55:06;;;;;;;10.70;3.95;;;16.00;99.90;;;;;;5032627;28;20450;-61
2022/06/04 05:57:32;;;;;;;8.98;3.80;;;16.20;99.90;;;;;;5036921;28;20030;-65
2022/06/04 05:59:57;;;;;;;8.10;3.92;;;16.50;99.90;;;;;;5042053;28;20028;-63
2022/06/04 06:02:23;;;;;;;12.30;3.97;;;16.60;99.90;;;;;;5043546;28;20049;-62
2022/06/04 06:04:48;;;;;;;11.75;4.30;;;16.70;99.90;;;;;;5041872;28;20033;-61
2022/06/04 06:07:14;;;;;;;7.93;3.50;;;16.70;99.90;;;;;;5038233;28;20104;-61
2022/06/04 06:09:40;;;;;;;10.63;4.25;;;16.80;99.90;;;;;;5043188;28;20013;-61
2022/06/04 06:12:06;;;;;;;10.48;4.18;;;17.10;99.90;;;;;;5041340;28;20036;-61
2022/06/04 06:14:32;;;;;;;10.00;3.78;;;17.80;99.90;;;;;;5042635;28;20095;-61
2022/06/04 06:16:58;;;;;;;6.38;3.30;;;18.20;99.90;;;;;;5043076;28;20113;-62
2022/06/04 06:19:25;;;;;;;10.05;3.78;;;18.40;99.90;;;;;;5035081;28;20021;-61
2022/06/04 06:21:51;;;;;;;10.63;4.00;;;18.80;99.90;;;;;;5032565;28;20104;-64
2022/06/04 06:24:20;;;;;;;12.68;3.78;;;19.00;99.90;;;;;;5033669;28;20031;-65
2022/06/04 06:26:52;;;;;;;11.50;3.75;;;18.90;99.90;;;;;;5043404;28;20052;-65
2022/06/04 06:29:18;;;;;;;13.13;3.78;;;18.80;99.90;;;;;;5032330;28;20075;-63
2022/06/04 06:31:45;;;;;;;9.20;3.88;;;18.50;99.90;;;;;;5032618;28;20041;-61
2022/06/04 06:34:10;;;;;;;11.25;4.40;;;18.20;99.90;;;;;;5030412;28;20446;-60
2022/06/04 06:36:36;;;;;;;6.45;3.30;;;18.00;99.90;;;;;;5029380;28;20027;-60
2022/06/04 06:39:02;;;;;;;10.43;3.50;;;17.80;99.90;;;;;;5031767;28;20109;-61
2022/06/04 06:41:28;;;;;;;9.77;3.70;;;17.60;99.90;;;;;;5031620;28;20013;-61
2022/06/04 06:43:54;;;;;;;7.57;3.42;;;17.50;99.90;;;;;;5031724;28;20347;-61
2022/06/04 06:46:33;;;;;;;9.23;3.75;;;17.40;99.90;;;;;;5032397;28;20063;-61
2022/06/04 06:49:12;;;;;;;11.60;3.95;;;17.30;99.90;;;;;;5036179;28;20025;-61
2022/06/04 06:51:42;;;;;;;8.48;3.28;;;17.20;99.90;;;;;;5035597;28;20433;-60
2022/06/04 06:54:08;;;;;;;9.38;4.43;;;17.10;99.90;;;;;;5035657;28;20021;-61
2022/06/04 06:56:37;;;;;;;10.32;3.97;;;17.00;99.90;;;;;;5041264;28;20047;-61
2022/06/04 06:59:05;;;;;;;7.57;3.63;;;17.00;99.90;;;;;;5052249;28;20067;-62
2022/06/04 07:01:31;;;;;;;9.02;3.83;;;16.90;99.90;;;;;;5055283;28;20056;-62
2022/06/04 07:03:57;;;;;;;6.03;3.40;;;16.80;99.90;;;;;;5054871;28;20023;-62
2022/06/04 07:06:33;;;;;;;9.25;3.80;;;16.80;99.90;;;;;;5041056;28;20481;-61
2022/06/04 07:09:00;;;;;;;9.95;3.95;;;16.70;99.90;;;;;;5035757;28;20026;-63
2022/06/04 07:11:26;;;;;;;7.32;3.75;;;16.60;99.90;;;;;;5035606;28;20129;-60
2022/06/04 07:13:52;;;;;;;7.47;3.30;;;16.60;99.90;;;;;;5035939;28;20104;-61
2022/06/04 07:16:18;;;;;;;11.20;4.10;;;16.60;99.90;;;;;;5035397;28;20060;-61
2022/06/04 07:18:46;;;;;;;7.80;4.30;;;16.50;99.90;;;;;;5035474;28;20021;-61
2022/06/04 07:21:13;;;;;;;7.30;3.13;;;16.50;99.90;;;;;;5035232;28;20029;-64
2022/06/04 07:23:39;;;;;;;9.18;3.42;;;16.50;99.90;;;;;;5035167;28;20021;-61
2022/06/04 07:26:05;;;;;;;6.65;3.15;;;16.50;99.90;;;;;;5031067;28;20064;-61
2022/06/04 07:28:32;;;;;;;11.25;3.95;;;16.50;99.90;;;;;;5015488;28;20040;-62
2022/06/04 07:30:58;;;;;;;8.20;3.67;;;16.60;99.90;;;;;;5015361;28;20142;-60
2022/06/04 07:33:27;;;;;;;12.18;3.95;;;16.70;99.90;;;;;;5015719;28;20145;-63
2022/06/04 07:35:52;;;;;;;7.55;3.20;;;16.80;99.90;;;;;;5015770;28;20025;-64
2022/06/04 07:38:18;;;;;;;7.45;3.55;;;16.90;99.90;;;;;;5015645;28;20518;-61
2022/06/04 07:40:44;;;;;;;10.70;3.25;;;17.10;99.90;;;;;;5015326;28;20026;-62
2022/06/04 07:43:11;;;;;;;11.38;3.72;;;17.20;99.90;;;;;;5015269;28;20030;-61
2022/06/04 07:45:37;;;;;;;9.57;3.45;;;17.30;99.90;;;;;;5014903;28;20022;-62
2022/06/04 07:48:03;;;;;;;9.32;3.58;;;17.50;99.90;;;;;;5013298;28;20128;-65
2022/06/04 07:50:30;;;;;;;6.72;3.03;;;17.60;99.90;;;;;;5014978;28;20049;-64
2022/06/04 07:52:57;;;;;;;6.25;2.97;;;17.70;99.90;;;;;;5028276;28;20017;-61
2022/06/04 07:55:23;;;;;;;9.63;3.33;;;17.60;99.90;;;;;;5034338;28;20567;-60
2022/06/04 07:57:49;;;;;;;6.15;3.20;;;17.60;99.90;;;;;;5032698;28;20478;-61
2022/06/04 08:00:15;;;;;;;8.63;3.40;;;17.60;99.90;;;;;;5034088;28;20038;-62
2022/06/04 08:02:45;;;;;;;6.18;3.08;;;17.60;99.90;;;;;;5035279;28;20040;-65
2022/06/04 08:05:11;;;;;;;9.95;3.50;;;17.60;99.90;;;;;;5034989;28;20041;-64
2022/06/04 08:07:37;;;;;;;9.57;3.25;;;17.50;99.90;;;;;;5035060;28;20104;-60
2022/06/04 08:10:04;;;;;;;7.43;3.15;;;17.60;99.90;;;;;;5034912;28;20083;-65
2022/06/04 08:12:33;;;;;;;7.63;3.92;;;17.70;99.90;;;;;;5034310;28;20021;-62
2022/06/04 08:14:59;;;;;;;8.43;3.60;;;17.90;99.90;;;;;;5034902;28;20018;-62
2022/06/04 08:17:25;;;;;;;7.95;3.90;;;18.10;99.90;;;;;;5034716;28;20087;-64
2022/06/04 08:19:51;;;;;;;6.55;2.70;;;18.30;99.90;;;;;;5034760;28;20032;-63
2022/06/04 08:22:17;;;;;;;7.03;2.97;;;18.40;99.90;;;;;;5034656;28;20029;-62
2022/06/04 08:24:42;;;;;;;7.32;3.47;;;18.50;99.90;;;;;;5034184;28;20021;-63
2022/06/04 08:27:08;;;;;;;9.85;3.22;;;18.70;99.90;;;;;;5034487;28;20033;-62
2022/06/04 08:29:37;;;;;;;4.55;2.58;;;18.80;99.90;;;;;;5034915;28;20049;-61
2022/06/04 08:32:04;;;;;;;7.55;3.20;;;19.00;99.90;;;;;;5034541;28;20034;-61
2022/06/04 08:34:30;;;;;;;6.57;3.58;;;19.30;99.90;;;;;;5034659;28;20116;-61
2022/06/04 08:36:55;;;;;;;8.15;3.80;;;19.50;99.90;;;;;;5034360;28;20020;-61
2022/06/04 08:39:21;;;;;;;4.88;2.55;;;19.80;99.90;;;;;;5033663;28;20029;-61
2022/06/04 08:42:08;;;;;;;8.60;2.72;;;20.00;99.90;;;;;;5033838;28;20026;-61
2022/06/04 08:44:39;;;;;;;6.30;2.80;;;20.10;99.60;;;;;;5032789;28;20029;-61
2022/06/04 08:47:25;;;;;;;7.05;3.10;;;20.00;99.70;;;;;;5033820;28;20060;-62
2022/06/04 08:50:06;;;;;;;7.03;3.20;;;20.10;99.80;;;;;;5033735;28;20474;-61
2022/06/04 08:52:34;;;;;;;6.97;2.70;;;20.30;99.60;;;;;;5033796;28;20041;-61
2022/06/04 08:57:55;;;;;;;8.88;3.08;;;20.50;98.70;;;;;;5034345;28;20080;-64
2022/06/04 09:00:54;;;;;;;7.38;3.30;;;20.60;98.50;;;;;;5033731;28;20461;-65
2022/06/04 09:03:34;;;;;;;5.82;2.75;;;20.80;98.40;;;;;;5033818;28;20036;-63
2022/06/04 09:06:35;;;;;;;7.47;3.33;;;21.00;97.90;;;;;;5032812;28;20116;-62
2022/06/04 09:09:13;;;;;;;11.52;3.03;;;21.00;97.60;;;;;;5032396;28;20111;-64
2022/06/04 09:12:23;;;;;;;4.00;2.30;;;20.90;97.40;;;;;;5031748;28;20033;-65
2022/06/04 09:15:20;;;;;;;7.90;3.60;;;20.70;97.70;;;;;;5009483;28;20033;-64
2022/06/04 09:17:55;;;;;;;7.05;2.92;;;20.60;97.80;;;;;;5029003;28;20049;-61
2022/06/04 09:20:29;;;;;;;6.57;3.00;;;20.60;97.60;;;;;;5032814;28;20079;-61
2022/06/04 09:23:03;;;;;;;7.65;3.25;;;20.60;97.20;;;;;;5032628;28;20037;-64
2022/06/04 09:25:40;;;;;;;10.10;3.95;;;20.50;97.00;;;;;;5032157;28;20025;-63
2022/06/04 09:28:34;;;;;;;5.95;3.22;;;20.40;97.50;;;;;;5030790;28;20079;-65
2022/06/04 09:31:24;;;;;;;6.32;3.00;;;20.40;97.90;;;;;;5029337;28;20422;-62
2022/06/04 09:34:02;;;;;;;7.22;3.03;;;20.50;98.20;;;;;;5031648;28;20025;-62
2022/06/04 09:36:39;;;;;;;7.65;3.90;;;20.60;98.40;;;;;;5032957;28;20109;-62
2022/06/04 09:39:19;;;;;;;7.97;3.05;;;20.60;98.00;;;;;;5047027;28;20445;-64
2022/06/04 09:41:51;;;;;;;6.68;2.88;;;20.70;97.90;;;;;;5051530;28;20021;-62
2022/06/04 09:44:17;;;;;;;6.00;3.50;;;20.60;97.70;;;;;;5051653;28;20442;-64
2022/06/04 09:46:46;;;;;;;6.55;3.20;;;20.50;98.20;;;;;;5052071;28;20060;-61
2022/06/04 09:49:34;;;;;;;4.30;2.90;;;20.70;98.40;;;;;;5051609;28;20017;-62
2022/06/04 09:52:30;;;;;;;6.05;2.78;;;20.80;97.60;;;;;;5034996;28;20035;-62
2022/06/04 09:54:59;;;;;;;8.75;3.15;;;20.80;97.50;;;;;;5029328;28;20039;-62
2022/06/04 09:57:35;;;;;;;6.93;2.85;;;21.10;97.10;;;;;;5032199;28;20100;-64
2022/06/04 10:00:05;;;;;;;5.38;2.58;;;21.40;96.70;;;;;;5017809;28;20057;-63
2022/06/04 10:02:31;;;;;;;8.35;3.42;;;21.50;96.80;;;;;;5038205;28;20021;-60
2022/06/04 10:05:06;;;;;;;10.02;4.78;;;21.50;96.80;;;;;;5032948;28;20017;-61
2022/06/04 10:07:38;;;;;;;7.30;3.15;;;21.50;96.90;;;;;;5042306;28;20034;-62
2022/06/04 10:10:32;;;;;;;5.37;3.03;;;21.80;96.30;;;;;;5032383;28;20025;-62
2022/06/04 10:15:45;;;;;;;6.90;2.70;;;21.90;95.90;;;;;;5037682;28;20424;-61
2022/06/04 10:18:16;;;;;;;5.10;2.88;;;22.00;95.80;;;;;;5040135;28;20055;-60
2022/06/04 10:20:52;;;;;;;7.00;3.20;;;22.10;95.80;;;;;;5043097;28;20075;-60
2022/06/04 10:23:17;;;;;;;6.90;3.22;;;22.20;95.60;;;;;;5040545;28;20377;-60
2022/06/04 10:26:01;;;;;;;7.93;3.08;;;22.10;95.40;;;;;;5037259;28;20029;-61
2022/06/04 10:28:27;;;;;;;8.10;3.53;;;22.10;95.20;;;;;;5027953;28;20033;-61
2022/06/04 10:31:03;;;;;;;7.80;3.15;;;22.20;94.40;;;;;;5032062;28;20060;-65
2022/06/04 10:33:46;;;;;;;8.52;3.10;;;22.30;94.50;;;;;;5031685;28;20068;-61
2022/06/04 10:36:24;;;;;;;5.60;3.13;;;22.60;94.10;;;;;;5032189;28;20100;-60
2022/06/04 10:39:19;;;;;;;5.18;3.00;;;23.40;93.70;;;;;;5036785;28;20377;-64
2022/06/04 10:42:00;;;;;;;7.05;2.85;;;24.80;92.00;;;;;;5040657;28;20021;-61
2022/06/04 10:45:14;;;;;;;7.43;3.30;;;25.80;90.70;;;;;;5038155;28;20038;-62
2022/06/04 10:47:49;;;;;;;8.80;3.00;;;26.80;90.10;;;;;;5019599;28;20033;-61
2022/06/04 10:50:22;;;;;;;5.43;3.35;;;28.10;86.10;;;;;;5018561;28;20073;-63
2022/06/04 10:53:19;;;;;;;11.23;3.88;;;28.20;83.90;;;;;;5032600;28;20044;-65
2022/06/04 10:55:50;;;;;;;8.60;3.17;;;27.70;83.90;;;;;;5041631;28;20047;-60
2022/06/04 10:58:40;;;;;;;6.68;3.60;;;27.70;84.20;;;;;;5042217;28;20695;-62
2022/06/04 11:01:31;;;;;;;8.90;3.20;;;28.20;82.30;;;;;;5040353;28;20032;-60
2022/06/04 11:04:07;;;;;;;13.15;3.80;;;28.30;81.80;;;;;;5039541;28;20017;-61
2022/06/04 11:06:38;;;;;;;8.73;4.22;;;28.20;81.70;;;;;;5042678;28;20398;-61
2022/06/04 11:09:18;;;;;;;7.37;4.20;;;27.90;81.20;;;;;;5040356;28;20025;-62
2022/06/04 11:11:55;;;;;;;11.35;4.07;;;27.30;81.20;;;;;;5039673;28;20317;-65
2022/06/04 11:14:34;;;;;;;9.48;4.00;;;26.60;82.20;;;;;;5040370;28;20037;-61
2022/06/04 11:17:20;;;;;;;10.60;3.85;;;26.10;83.20;;;;;;5037288;28;20087;-61
2022/06/04 11:20:01;;;;;;;7.15;3.70;;;25.70;84.20;;;;;;5034199;28;20021;-61
2022/06/04 11:22:34;;;;;;;10.43;3.45;;;25.50;84.70;;;;;;5039169;28;20030;-62
2022/06/04 11:25:27;;;;;;;12.05;4.03;;;25.50;84.40;;;;;;5035635;28;20021;-61
2022/06/04 11:28:00;;;;;;;10.55;3.78;;;25.20;84.30;;;;;;5037267;28;20028;-62
2022/06/04 11:30:35;;;;;;;9.32;3.47;;;25.00;85.30;;;;;;5040148;28;20053;-62
2022/06/04 11:33:36;;;;;;;7.30;3.35;;;24.70;86.00;;;;;;5037300;28;20414;-62
2022/06/04 11:36:11;;;;;;;8.68;3.97;;;24.30;86.70;;;;;;5044857;28;20412;-61
2022/06/04 11:38:47;;;;;;;7.40;3.50;;;24.10;87.70;;;;;;5043937;28;20113;-62
2022/06/04 11:41:28;;;;;;;8.85;3.72;;;23.80;88.20;;;;;;5044204;28;20026;-61
2022/06/04 11:44:22;;;;;;;7.80;3.75;;;23.80;89.00;;;;;;5050540;28;20135;-61
2022/06/04 11:47:15;;;;;;;9.38;4.20;;;23.60;88.70;;;;;;5049935;28;20027;-62
2022/06/04 11:49:46;;;;;;;6.93;3.47;;;23.40;89.70;;;;;;5035367;28;20021;-62
2022/06/04 11:52:21;;;;;;;8.98;3.63;;;23.40;90.00;;;;;;5031558;28;20030;-62
2022/06/04 11:54:57;;;;;;;9.93;4.40;;;23.30;89.80;;;;;;5034945;28;20484;-63
2022/06/04 11:57:39;;;;;;;7.85;3.80;;;23.10;90.20;;;;;;5034692;28;20067;-65
2022/06/04 12:00:20;;;;;;;8.65;4.00;;;23.00;90.60;;;;;;5035335;28;20033;-62
2022/06/04 12:03:09;;;;;;;8.52;3.65;;;22.80;90.70;;;;;;5028921;28;20022;-62
2022/06/04 12:06:01;;;;;;;8.65;4.03;;;22.80;91.10;;;;;;5029440;28;20513;-63
2022/06/04 12:08:36;;;;;;;10.50;3.65;;;22.70;91.10;;;;;;5027947;28;20034;-62
2022/06/04 12:11:14;;;;;;;5.13;3.17;;;22.70;91.30;;;;;;5047344;28;20437;-64
2022/06/04 12:13:42;;;;;;;8.68;3.35;;;22.90;90.80;;;;;;5033055;28;20014;-63
2022/06/04 12:16:23;;;;;;;6.35;3.17;;;23.10;91.00;;;;;;5032816;28;20693;-63
2022/06/04 12:19:01;;;;;;;7.07;3.65;;;23.10;91.00;;;;;;5034684;28;20029;-62
2022/06/04 12:24:37;;;;;;;8.68;4.03;;;23.10;91.00;;;;;;5034576;28;20033;-62
2022/06/04 12:27:19;;;;;;;6.78;3.25;;;23.10;91.10;;;;;;5030612;28;20028;-62
2022/06/04 12:29:51;;;;;;;7.60;3.20;;;22.90;91.50;;;;;;5033548;28;21447;-65
2022/06/04 12:32:24;;;;;;;9.93;3.83;;;22.80;91.80;;;;;;5033340;28;20501;-62
2022/06/04 12:35:04;;;;;;;8.07;3.78;;;22.60;91.80;;;;;;5034998;28;20033;-61
2022/06/04 12:37:36;;;;;;;8.05;3.42;;;22.50;92.10;;;;;;5034291;28;20556;-61
2022/06/04 12:40:22;;;;;;;;;;;22.40;92.30;;;;;;5040347;28;20033;-61
2022/06/04 12:43:18;;;;;;;8.23;3.40;;;22.40;92.40;;;;;;5052509;28;20264;-65
2022/06/04 12:45:46;;;;;;;9.52;3.80;;;22.40;92.70;;;;;;5052486;28;20103;-60
2022/06/04 12:48:51;;;;;;;7.85;3.88;;;22.40;92.70;;;;;;5052641;28;20017;-61
2022/06/04 12:51:35;;;;;;;6.50;3.40;;;22.40;92.50;;;;;;5018990;28;20116;-61
2022/06/04 12:54:06;;;;;;;10.40;4.10;;;22.30;92.60;;;;;;5034115;28;20445;-62
2022/06/04 12:56:34;;;;;;;8.85;4.15;;;22.30;92.90;;;;;;5034141;28;20079;-64
2022/06/04 12:59:03;;;;;;;9.75;4.55;;;22.30;92.90;;;;;;5034023;28;20018;-60
2022/06/04 13:01:38;;;;;;;10.95;4.13;;;22.20;92.90;;;;;;5035784;28;20416;-65
2022/06/04 13:04:10;;;;;;;7.40;4.20;;;22.30;92.80;;;;;;5040947;28;20013;-63
2022/06/04 13:06:38;;;;;;;6.97;3.92;;;22.30;92.90;;;;;;5052233;28;20032;-63
2022/06/04 13:09:12;;;;;;;7.75;3.90;;;22.40;92.70;;;;;;5034965;28;20068;-62
2022/06/04 13:12:16;;;;;;;8.52;4.30;;;22.50;92.70;;;;;;5033096;28;20784;-63
2022/06/04 13:14:55;;;;;;;8.65;3.80;;;22.60;92.70;;;;;;5029454;28;20025;-63
2022/06/04 13:17:41;;;;;;;6.65;3.85;;;22.70;92.50;;;;;;5033921;28;20029;-63
2022/06/04 13:20:36;;;;;;;8.93;3.78;;;22.70;92.60;;;;;;5030587;28;20022;-63
2022/06/04 13:23:14;;;;;;;7.43;3.80;;;22.70;92.90;;;;;;5035549;28;20025;-62
2022/06/04 13:25:43;;;;;;;5.75;3.38;;;22.70;93.10;;;;;;5042678;28;20034;-61